Time;durP1;ratioP1;P1;durP2;ratioP2;P2;SDS_P1;SDS_P2;PMS_P1;PMS_P2;Temp;Humidity;BMP_temperature;BMP_pressure;BME280_temperature;BME280_humidity;BME280_pressure;Samples;Min_cycle;Max_cycle;Signal;HPM_P1;HPM_P2
2022/02/17 00:00:29;;;;;;;11.98;2.13;;;;;;;12.87;77.43;97111.25;5088381;28;20040;-61
2022/02/17 00:02:56;;;;;;;8.45;1.95;;;;;;;12.85;76.98;97100.84;5090037;28;20044;-60
2022/02/17 00:05:23;;;;;;;11.32;2.47;;;;;;;12.85;76.98;97100.00;5090287;28;20067;-62
2022/02/17 00:07:51;;;;;;;11.13;2.13;;;;;;;12.81;76.13;97125.09;5088386;28;20058;-62
2022/02/17 00:10:19;;;;;;;12.60;2.53;;;;;;;12.77;76.08;97120.16;5089764;28;20044;-61
2022/02/17 00:12:46;;;;;;;8.32;2.42;;;;;;;12.74;76.44;97123.13;5088895;28;20063;-62
2022/02/17 00:15:14;;;;;;;8.70;1.63;;;;;;;12.73;76.79;97110.09;5089397;28;20037;-62
2022/02/17 00:17:41;;;;;;;6.25;1.90;;;;;;;12.71;76.36;97133.22;5074157;28;20768;-60
2022/02/17 00:20:09;;;;;;;8.35;2.47;;;;;;;12.69;76.55;97124.63;5089595;28;20059;-62
2022/02/17 00:22:36;;;;;;;6.70;1.75;;;;;;;12.67;76.56;97110.78;5088755;28;20052;-62
2022/02/17 00:25:05;;;;;;;13.30;2.05;;;;;;;12.67;76.34;97116.06;5088752;28;20052;-61
2022/02/17 00:27:31;;;;;;;13.57;2.58;;;;;;;12.67;76.51;97126.63;5089799;28;20056;-62
2022/02/17 00:29:58;;;;;;;11.98;2.42;;;;;;;12.66;76.37;97120.50;5089487;28;20048;-60
2022/02/17 00:32:24;;;;;;;9.45;2.05;;;;;;;12.64;75.68;97119.84;5089675;28;20044;-61
2022/02/17 00:34:51;;;;;;;15.32;2.20;;;;;;;12.64;74.51;97133.84;5089867;28;20137;-60
2022/02/17 00:37:18;;;;;;;14.05;2.63;;;;;;;12.63;75.33;97120.81;5089740;28;20381;-60
2022/02/17 00:39:45;;;;;;;8.48;2.55;;;;;;;12.63;75.31;97099.72;5089302;28;20048;-61
2022/02/17 00:42:11;;;;;;;9.85;3.22;;;;;;;12.59;73.99;97091.31;5089608;28;20102;-60
2022/02/17 00:44:38;;;;;;;9.68;2.55;;;;;;;12.60;74.63;97129.09;5089507;28;20450;-61
2022/02/17 00:47:06;;;;;;;11.85;2.30;;;;;;;12.61;74.63;97097.25;5089475;28;20094;-60
2022/02/17 00:49:33;;;;;;;13.60;2.47;;;;;;;12.60;73.85;97131.72;5091294;28;20101;-60
2022/02/17 00:51:59;;;;;;;9.98;2.20;;;;;;;12.58;73.24;97110.78;5093401;28;20060;-64
2022/02/17 00:54:26;;;;;;;11.48;2.35;;;;;;;12.58;72.69;97138.97;5093356;28;20557;-61
2022/02/17 00:56:53;;;;;;;9.18;2.20;;;;;;;12.57;72.04;97129.41;5093288;28;20393;-60
2022/02/17 00:59:20;;;;;;;11.48;1.90;;;;;;;12.51;70.88;97149.38;5092692;28;20382;-62
2022/02/17 01:01:47;;;;;;;10.23;1.90;;;;;;;12.42;69.91;97153.00;5092793;28;20446;-61
2022/02/17 01:04:15;;;;;;;9.98;1.50;;;;;;;12.32;68.42;97135.50;5091628;28;20056;-61
2022/02/17 01:06:42;;;;;;;6.47;1.80;;;;;;;12.22;69.58;97145.38;5093075;28;20081;-60
2022/02/17 01:09:11;;;;;;;8.82;1.38;;;;;;;12.12;69.40;97164.81;5092767;28;20048;-61
2022/02/17 01:11:38;;;;;;;4.70;1.23;;;;;;;12.01;69.38;97170.38;5091432;28;20074;-62
2022/02/17 01:14:06;;;;;;;7.68;1.10;;;;;;;11.88;68.58;97151.56;5092859;28;20052;-62
2022/02/17 01:16:34;;;;;;;4.93;1.33;;;;;;;11.78;69.31;97135.88;5087567;28;20462;-61
2022/02/17 01:19:01;;;;;;;4.70;1.00;;;;;;;11.70;70.55;97134.84;5091631;28;21076;-61
2022/02/17 01:21:30;;;;;;;4.07;0.95;;;;;;;11.62;70.45;97134.84;5092545;28;20040;-61
2022/02/17 01:23:56;;;;;;;3.97;1.10;;;;;;;11.53;70.44;97105.00;5092474;28;20044;-63
2022/02/17 01:26:23;;;;;;;5.05;1.20;;;;;;;11.46;70.58;97114.53;5092494;28;20105;-61
2022/02/17 01:28:49;;;;;;;5.88;1.35;;;;;;;11.38;71.11;97106.59;5092524;28;20044;-59
2022/02/17 01:31:18;;;;;;;7.13;1.50;;;;;;;11.30;71.28;97089.78;5092438;28;20101;-60
2022/02/17 01:33:45;;;;;;;6.63;1.05;;;;;;;11.24;71.83;97113.25;5092633;28;20424;-60
2022/02/17 01:36:11;;;;;;;6.18;1.23;;;;;;;11.18;71.88;97114.75;5091140;28;20056;-60
2022/02/17 01:38:39;;;;;;;6.40;1.58;;;;;;;11.10;71.74;97109.44;5091046;28;20048;-62
2022/02/17 01:41:08;;;;;;;8.57;1.77;;;;;;;11.04;72.23;97127.50;5092382;28;20052;-61
2022/02/17 01:43:36;;;;;;;7.03;1.80;;;;;;;11.01;72.53;97130.44;5091147;28;20048;-62
2022/02/17 01:46:05;;;;;;;5.88;1.58;;;;;;;10.99;73.15;97129.75;5090826;28;20043;-62
2022/02/17 01:48:32;;;;;;;9.80;1.75;;;;;;;10.98;73.38;97109.69;5092390;28;20047;-61
2022/02/17 01:50:59;;;;;;;6.65;1.98;;;;;;;10.98;73.67;97098.34;5092224;28;20060;-60
2022/02/17 01:53:26;;;;;;;7.28;1.90;;;;;;;10.97;73.88;97105.41;5091021;28;20060;-61
2022/02/17 01:55:54;;;;;;;9.68;1.73;;;;;;;10.99;74.23;97113.97;5090995;28;20052;-60
2022/02/17 01:58:22;;;;;;;10.05;2.08;;;;;;;10.98;74.42;97106.25;5091927;28;20043;-63
2022/02/17 02:00:49;;;;;;;10.82;2.05;;;;;;;11.01;74.91;97113.81;5089148;28;20047;-60
2022/02/17 02:03:16;;;;;;;8.70;2.00;;;;;;;11.04;75.35;97106.44;5090786;28;20105;-61
2022/02/17 02:05:43;;;;;;;8.25;1.98;;;;;;;11.09;75.47;97113.88;5091727;28;20557;-61
2022/02/17 02:08:10;;;;;;;10.88;2.30;;;;;;;11.14;76.00;97095.78;5092334;28;20055;-62
2022/02/17 02:10:38;;;;;;;14.38;2.50;;;;;;;11.21;76.09;97127.56;5091782;28;20044;-61
2022/02/17 02:13:04;;;;;;;8.30;2.05;;;;;;;11.28;76.30;97127.78;5090563;28;20044;-61
2022/02/17 02:15:52;;;;;;;10.52;2.47;;;;;;;11.30;73.18;97091.59;5091583;28;20070;-61
2022/02/17 02:18:20;;;;;;;13.73;3.00;;;;;;;11.39;74.47;97126.66;5090398;28;20117;-61
2022/02/17 02:20:49;;;;;;;11.75;2.63;;;;;;;11.45;74.67;97133.94;5090153;28;20056;-61
2022/02/17 02:23:16;;;;;;;12.40;3.20;;;;;;;11.55;74.74;97121.47;5091870;28;20113;-64
2022/02/17 02:25:48;;;;;;;12.00;2.47;;;;;;;11.63;71.71;97119.84;5090415;28;20391;-60
2022/02/17 02:28:26;;;;;;;12.85;3.05;;;;;;;11.70;71.27;97141.97;5090281;28;20048;-61
2022/02/17 02:30:53;;;;;;;13.77;2.53;;;;;;;11.76;72.25;97130.75;5091262;28;20052;-60
2022/02/17 02:33:21;;;;;;;12.88;2.88;;;;;;;11.83;72.80;97173.13;5091321;28;20105;-61
2022/02/17 02:35:49;;;;;;;5.65;1.88;;;;;;;11.88;73.12;97184.00;5090316;28;20083;-61
2022/02/17 02:38:16;;;;;;;8.57;2.50;;;;;;;11.91;72.84;97181.06;5090123;28;20482;-60
2022/02/17 02:40:43;;;;;;;11.52;2.72;;;;;;;11.96;72.75;97191.13;5090226;28;20101;-60
2022/02/17 02:43:11;;;;;;;9.73;2.50;;;;;;;11.96;72.58;97183.22;5089855;28;20048;-60
2022/02/17 02:45:38;;;;;;;14.77;2.67;;;;;;;11.96;70.25;97175.31;5091368;28;20120;-61
2022/02/17 02:48:10;;;;;;;14.95;3.20;;;;;;;11.92;61.70;97192.44;5090611;28;20500;-61
2022/02/17 02:50:37;;;;;;;14.27;2.25;;;;;;;11.95;68.84;97213.19;5069343;28;20559;-62
2022/02/17 02:53:04;;;;;;;14.68;2.67;;;;;;;11.90;66.08;97220.75;5086325;28;20040;-60
2022/02/17 02:55:32;;;;;;;13.68;2.70;;;;;;;11.85;65.39;97251.03;5070635;28;20427;-60
2022/02/17 02:57:59;;;;;;;16.83;3.72;;;;;;;11.81;66.64;97241.78;5070173;28;20056;-65
2022/02/17 03:00:26;;;;;;;12.23;2.70;;;;;;;11.77;66.75;97287.09;5070080;28;20049;-61
2022/02/17 03:02:53;;;;;;;8.95;2.45;;;;;;;11.72;66.85;97324.44;5070473;28;20516;-60
2022/02/17 03:05:20;;;;;;;16.75;2.97;;;;;;;11.66;66.86;97302.16;5088161;28;20097;-60
2022/02/17 03:07:47;;;;;;;16.83;2.67;;;;;;;11.62;67.47;97302.66;5090698;28;20044;-62
2022/02/17 03:10:15;;;;;;;13.48;2.42;;;;;;;11.57;67.16;97303.09;5090266;28;20048;-61
2022/02/17 03:12:42;;;;;;;16.80;3.30;;;;;;;11.54;67.13;97288.44;5089358;28;20052;-62
2022/02/17 03:15:10;;;;;;;17.13;3.10;;;;;;;11.49;67.53;97303.03;5090457;28;20143;-61
2022/02/17 03:17:37;;;;;;;14.77;3.20;;;;;;;11.42;67.01;97321.28;5088533;28;20404;-62
2022/02/17 03:20:07;;;;;;;13.88;2.97;;;;;;;11.35;63.82;97307.91;5088245;28;20055;-61
2022/02/17 03:22:36;;;;;;;17.15;2.75;;;;;;;11.32;65.73;97319.56;5089002;28;20450;-62
2022/02/17 03:25:05;;;;;;;12.52;2.67;;;;;;;11.31;67.66;97332.88;5090227;28;20488;-62
2022/02/17 03:27:32;;;;;;;14.23;2.83;;;;;;;11.29;68.03;97345.38;5089465;28;20106;-61
2022/02/17 03:29:59;;;;;;;15.32;3.40;;;;;;;11.27;68.31;97348.16;5089630;28;20056;-64
2022/02/17 03:32:26;;;;;;;15.70;3.25;;;;;;;11.27;68.91;97345.53;5089821;28;20047;-61
2022/02/17 03:34:52;;;;;;;10.90;2.13;;;;;;;11.27;69.41;97353.44;5090156;28;20109;-61
2022/02/17 03:37:19;;;;;;;14.85;2.75;;;;;;;11.26;69.44;97349.16;5090047;28;20101;-61
2022/02/17 03:39:46;;;;;;;15.25;2.53;;;;;;;11.24;68.73;97364.25;5089176;28;20055;-60
2022/02/17 03:42:12;;;;;;;16.17;3.75;;;;;;;11.25;69.80;97378.28;5090183;28;20052;-61
2022/02/17 03:44:39;;;;;;;16.48;3.08;;;;;;;11.25;70.09;97391.44;5090072;28;20109;-60
2022/02/17 03:47:06;;;;;;;11.55;2.88;;;;;;;11.23;70.19;97396.84;5089914;28;20409;-61
2022/02/17 03:49:32;;;;;;;13.77;2.70;;;;;;;11.22;69.59;97387.31;5090158;28;20872;-60
2022/02/17 03:51:59;;;;;;;11.15;2.90;;;;;;;11.20;68.95;97369.00;5089981;28;20048;-61
2022/02/17 03:54:26;;;;;;;14.30;2.67;;;;;;;11.18;68.94;97383.31;5090127;28;20450;-62
2022/02/17 03:56:54;;;;;;;15.43;2.65;;;;;;;11.19;69.19;97393.69;5090172;28;20048;-62
2022/02/17 03:59:20;;;;;;;10.18;2.65;;;;;;;11.17;67.37;97406.16;5090150;28;20055;-61
2022/02/17 04:01:47;;;;;;;11.02;2.60;;;;;;;11.16;67.33;97374.72;5090011;28;20052;-60
2022/02/17 04:04:14;;;;;;;10.98;2.55;;;;;;;11.14;67.41;97355.63;5089990;28;20085;-60
2022/02/17 04:06:40;;;;;;;12.70;2.65;;;;;;;11.15;67.92;97402.03;5089991;28;20044;-60
2022/02/17 04:09:07;;;;;;;12.93;2.50;;;;;;;11.16;68.23;97404.53;5090349;28;20060;-63
2022/02/17 04:11:34;;;;;;;13.50;2.53;;;;;;;11.16;67.44;97408.94;5088911;28;20067;-62
2022/02/17 04:14:02;;;;;;;18.35;3.05;;;;;;;11.16;68.31;97427.38;5090132;28;20098;-61
2022/02/17 04:16:31;;;;;;;10.88;2.80;;;;;;;11.13;68.01;97412.72;5088081;28;20048;-60
2022/02/17 04:19:01;;;;;;;16.45;3.38;;;;;;;11.13;67.63;97419.78;5089653;28;20525;-61
2022/02/17 04:21:27;;;;;;;15.20;3.03;;;;;;;11.10;65.17;97480.66;5090001;28;20048;-60
2022/02/17 04:23:54;;;;;;;11.98;2.72;;;;;;;11.11;66.96;97459.44;5092529;28;20052;-60
2022/02/17 04:26:21;;;;;;;11.35;2.50;;;;;;;11.13;66.83;97443.47;5093891;28;20048;-61
2022/02/17 04:28:48;;;;;;;11.57;2.75;;;;;;;11.14;67.60;97480.19;5093950;28;20102;-61
2022/02/17 04:31:15;;;;;;;12.30;2.95;;;;;;;11.12;65.45;97436.56;5093660;28;20098;-61
2022/02/17 04:33:43;;;;;;;15.15;2.55;;;;;;;11.13;66.91;97456.63;5093071;28;20059;-62
2022/02/17 04:36:10;;;;;;;11.30;2.60;;;;;;;11.13;67.00;97461.91;5093932;28;20451;-60
2022/02/17 04:38:37;;;;;;;13.35;2.38;;;;;;;11.07;65.88;97445.72;5093376;28;20105;-62
2022/02/17 04:43:48;;;;;;;11.27;2.38;;;;;;;11.07;66.51;97482.56;5093673;28;20345;-60
2022/02/17 04:46:15;;;;;;;12.93;2.63;;;;;;;11.04;64.99;97493.44;5093272;28;20056;-61
2022/02/17 04:48:41;;;;;;;15.18;3.47;;;;;;;11.02;66.11;97513.78;5092860;28;20504;-61
2022/02/17 04:51:11;;;;;;;13.45;2.95;;;;;;;11.02;66.45;97520.84;5093110;28;20131;-60
2022/02/17 04:53:37;;;;;;;10.80;2.38;;;;;;;10.99;64.34;97511.44;5092949;28;20051;-61
2022/02/17 04:56:04;;;;;;;20.00;3.08;;;;;;;10.96;65.32;97506.50;5093138;28;20093;-60
2022/02/17 04:58:31;;;;;;;14.75;3.33;;;;;;;10.95;65.88;97494.28;5092950;28;20044;-60
2022/02/17 05:00:57;;;;;;;11.80;2.28;;;;;;;10.94;66.61;97530.31;5093376;28;20089;-61
2022/02/17 05:03:24;;;;;;;11.57;2.50;;;;;;;10.90;66.05;97531.59;5093143;28;20048;-61
2022/02/17 05:05:52;;;;;;;13.00;2.53;;;;;;;10.87;65.00;97517.91;5093163;28;20093;-60
2022/02/17 05:08:19;;;;;;;12.98;2.92;;;;;;;10.85;66.05;97554.88;5091710;28;20535;-60
2022/02/17 05:10:49;;;;;;;10.73;2.05;;;;;;;10.80;63.42;97514.97;5092865;28;20048;-61
2022/02/17 05:13:16;;;;;;;14.18;2.95;;;;;;;10.79;65.88;97529.97;5091763;28;20510;-63
2022/02/17 05:15:44;;;;;;;12.65;2.90;;;;;;;10.80;66.02;97563.19;5092677;28;20044;-60
2022/02/17 05:18:11;;;;;;;12.52;2.63;;;;;;;10.80;66.22;97536.03;5091795;28;20089;-59
2022/02/17 05:20:37;;;;;;;10.75;2.13;;;;;;;10.80;66.85;97552.66;5092697;28;20044;-60
2022/02/17 05:23:05;;;;;;;8.60;2.35;;;;;;;10.81;66.73;97564.03;5092793;28;20506;-61
2022/02/17 05:25:31;;;;;;;17.45;3.40;;;;;;;10.80;66.16;97568.47;5092866;28;20044;-60
2022/02/17 05:27:58;;;;;;;13.77;2.78;;;;;;;10.78;65.50;97569.56;5091269;28;20496;-60
2022/02/17 05:30:26;;;;;;;15.07;2.90;;;;;;;10.80;66.18;97586.03;5091593;28;20048;-60
2022/02/17 05:32:52;;;;;;;13.48;2.05;;;;;;;10.79;65.97;97572.06;5091562;28;20048;-60
2022/02/17 05:35:19;;;;;;;11.73;2.53;;;;;;;10.80;66.87;97602.66;5092495;28;20074;-60
2022/02/17 05:37:46;;;;;;;20.52;3.08;;;;;;;10.77;65.01;97594.25;5092475;28;20093;-60
2022/02/17 05:40:13;;;;;;;14.68;2.30;;;;;;;10.76;65.70;97600.47;5092344;28;20052;-60
2022/02/17 05:42:40;;;;;;;12.93;2.72;;;;;;;10.71;65.25;97600.91;5092289;28;20040;-60
2022/02/17 05:45:07;;;;;;;13.43;2.60;;;;;;;10.69;63.64;97568.63;5092306;28;20060;-61
2022/02/17 05:47:34;;;;;;;11.45;2.03;;;;;;;10.67;65.34;97600.34;5091288;28;20044;-60
2022/02/17 05:50:00;;;;;;;17.35;2.95;;;;;;;10.64;64.85;97610.31;5092261;28;20483;-61
2022/02/17 05:52:27;;;;;;;10.38;2.47;;;;;;;10.60;64.98;97609.78;5092212;28;20044;-60
2022/02/17 05:54:53;;;;;;;16.45;2.58;;;;;;;10.56;64.60;97632.06;5092453;28;20101;-60
2022/02/17 05:57:20;;;;;;;19.60;3.35;;;;;;;10.53;65.03;97596.34;5092607;28;20052;-62
2022/02/17 05:59:48;;;;;;;11.10;2.55;;;;;;;10.51;65.19;97629.03;5091603;28;20056;-63
2022/02/17 06:02:15;;;;;;;9.55;2.92;;;;;;;10.50;65.92;97630.00;5092220;28;20044;-61
2022/02/17 06:04:43;;;;;;;10.02;2.15;;;;;;;10.47;65.55;97661.84;5092242;28;20048;-60
2022/02/17 06:07:13;;;;;;;12.48;2.92;;;;;;;10.41;63.56;97626.38;5090839;28;20048;-60
2022/02/17 06:09:41;;;;;;;17.25;3.00;;;;;;;10.43;66.19;97650.72;5091798;28;20048;-60
2022/02/17 06:12:08;;;;;;;16.15;3.15;;;;;;;10.41;66.33;97648.25;5091918;28;20054;-60
2022/02/17 06:14:35;;;;;;;12.43;2.60;;;;;;;10.42;66.83;97651.69;5091808;28;20048;-61
2022/02/17 06:17:02;;;;;;;14.85;3.08;;;;;;;10.42;67.03;97654.34;5090345;28;20059;-59
2022/02/17 06:19:29;;;;;;;19.35;3.78;;;;;;;10.39;66.75;97637.03;5091282;28;20040;-61
2022/02/17 06:21:56;;;;;;;19.40;3.58;;;;;;;10.38;66.57;97653.78;5091288;28;20125;-60
2022/02/17 06:24:23;;;;;;;14.38;2.65;;;;;;;10.37;66.67;97646.03;5089999;28;20044;-59
2022/02/17 06:26:49;;;;;;;12.63;3.13;;;;;;;10.34;66.54;97657.66;5091876;28;20102;-60
2022/02/17 06:29:16;;;;;;;16.20;2.47;;;;;;;10.32;66.58;97729.78;5091168;28;20504;-60
2022/02/17 06:31:44;;;;;;;13.95;3.33;;;;;;;10.27;65.33;97670.53;5091517;28;20397;-59
2022/02/17 06:34:11;;;;;;;12.60;3.00;;;;;;;10.27;65.21;97699.47;5090601;28;20059;-60
2022/02/17 06:36:38;;;;;;;16.00;3.40;;;;;;;10.28;66.08;97687.97;5091279;28;20052;-61
2022/02/17 06:39:05;;;;;;;14.80;3.63;;;;;;;10.27;66.06;97709.97;5091349;28;20048;-60
2022/02/17 06:41:31;;;;;;;11.60;2.90;;;;;;;10.28;66.52;97705.56;5091288;28;20075;-62
2022/02/17 06:43:59;;;;;;;14.02;3.17;;;;;;;10.25;65.65;97701.38;5091106;28;20044;-60
2022/02/17 06:46:26;;;;;;;19.58;2.75;;;;;;;10.28;65.92;97742.38;5090412;28;20052;-61
2022/02/17 06:48:52;;;;;;;13.60;2.63;;;;;;;10.28;66.00;97727.41;5090784;28;20043;-61
2022/02/17 06:51:19;;;;;;;15.73;2.90;;;;;;;10.30;66.79;97717.59;5090608;28;20044;-60
2022/02/17 06:53:47;;;;;;;11.70;2.55;;;;;;;10.29;65.45;97755.34;5090797;28;20554;-61
2022/02/17 06:56:13;;;;;;;12.93;3.08;;;;;;;10.31;66.31;97739.44;5091393;28;20113;-60
2022/02/17 06:58:40;;;;;;;16.17;3.05;;;;;;;10.30;65.81;97770.19;5090665;28;20044;-61
2022/02/17 07:01:06;;;;;;;11.18;3.03;;;;;;;10.29;65.13;97759.81;5090915;28;20410;-61
2022/02/17 07:03:33;;;;;;;11.38;2.60;;;;;;;10.30;65.24;97783.34;5091097;28;20082;-61
2022/02/17 07:06:01;;;;;;;9.32;2.60;;;;;;;10.30;65.56;97795.66;5089314;28;20052;-62
2022/02/17 07:08:28;;;;;;;11.55;2.28;;;;;;;10.33;65.62;97805.06;5091188;28;20101;-60
2022/02/17 07:10:54;;;;;;;13.93;2.78;;;;;;;10.31;65.71;97789.41;5090920;28;20458;-60
2022/02/17 07:13:26;;;;;;;8.68;2.00;;;;;;;10.30;63.52;97825.41;5090825;28;20052;-61
2022/02/17 07:15:53;;;;;;;13.13;3.15;;;;;;;10.31;65.86;97815.72;5089292;28;20108;-60
2022/02/17 07:18:23;;;;;;;11.90;2.10;;;;;;;10.29;65.62;97833.44;5090512;28;20382;-63
2022/02/17 07:20:51;;;;;;;11.27;2.47;;;;;;;10.29;66.05;97852.66;5088881;28;20489;-62
2022/02/17 07:23:18;;;;;;;15.38;2.75;;;;;;;10.28;66.12;97832.59;5089484;28;20056;-60
2022/02/17 07:25:45;;;;;;;13.27;2.53;;;;;;;10.25;63.77;97889.88;5090236;28;20064;-64
2022/02/17 07:28:14;;;;;;;19.02;3.05;;;;;;;10.23;64.36;97866.34;5089883;28;20050;-61
2022/02/17 07:30:41;;;;;;;11.85;2.40;;;;;;;10.24;66.03;97875.09;5088091;28;20069;-60
2022/02/17 07:33:11;;;;;;;8.57;1.80;;;;;;;10.21;65.64;97852.47;5090569;28;20553;-61
2022/02/17 07:35:37;;;;;;;15.82;2.70;;;;;;;10.21;66.20;97894.56;5089665;28;20530;-60
2022/02/17 07:38:06;;;;;;;8.48;2.15;;;;;;;10.18;65.56;97897.47;5090218;28;20499;-60
2022/02/17 07:40:33;;;;;;;7.53;1.95;;;;;;;10.20;66.81;97889.47;5089984;28;20050;-61
2022/02/17 07:43:00;;;;;;;14.43;2.15;;;;;;;10.15;66.00;97901.19;5088969;28;20553;-60
2022/02/17 07:45:26;;;;;;;10.13;2.00;;;;;;;10.16;66.34;97909.91;5087898;28;20101;-60
2022/02/17 07:47:54;;;;;;;10.82;2.08;;;;;;;10.14;65.70;97925.00;5089103;28;20044;-61
2022/02/17 07:50:27;;;;;;;11.65;1.95;;;;;;;10.13;65.52;97933.84;5090109;28;20055;-61
2022/02/17 07:52:58;;;;;;;11.25;1.85;;;;;;;10.12;65.92;97924.25;5089132;28;20055;-60
2022/02/17 07:55:25;;;;;;;9.60;2.30;;;;;;;10.11;66.25;97941.00;5090158;28;20428;-60
2022/02/17 07:57:51;;;;;;;11.45;2.28;;;;;;;10.08;65.42;97936.84;5090866;28;20789;-60
2022/02/17 08:00:19;;;;;;;13.05;2.58;;;;;;;10.10;65.79;97934.09;5093754;28;20128;-60
2022/02/17 08:02:46;;;;;;;12.63;2.72;;;;;;;10.10;65.48;97944.59;5094109;28;20098;-61
2022/02/17 08:05:12;;;;;;;9.52;2.00;;;;;;;10.07;64.89;97956.22;5094445;28;20052;-60
2022/02/17 08:07:39;;;;;;;13.50;2.50;;;;;;;10.10;65.94;97989.31;5094486;28;20080;-62
2022/02/17 08:10:07;;;;;;;7.60;2.15;;;;;;;10.10;65.81;97965.63;5093978;28;20101;-60
2022/02/17 08:12:43;;;;;;;8.77;2.33;;;;;;;10.07;63.33;97981.66;5094028;28;20132;-60
2022/02/17 08:15:10;;;;;;;9.40;1.90;;;;;;;10.11;65.55;97983.06;5094387;28;20052;-60
2022/02/17 08:17:37;;;;;;;10.00;2.45;;;;;;;10.11;66.64;97990.97;5092635;28;20052;-59
2022/02/17 08:20:05;;;;;;;11.55;2.03;;;;;;;10.10;62.85;97981.41;5093953;28;20048;-61
2022/02/17 08:22:32;;;;;;;12.00;2.65;;;;;;;10.12;65.87;98003.97;5094112;28;20060;-61
2022/02/17 08:24:58;;;;;;;10.38;1.83;;;;;;;10.13;65.83;98029.31;5093884;28;20052;-60
2022/02/17 08:27:25;;;;;;;9.00;2.05;;;;;;;10.14;65.54;98024.91;5094148;28;20056;-61
2022/02/17 08:29:52;;;;;;;14.95;2.47;;;;;;;10.12;63.90;97990.00;5093590;28;20067;-60
2022/02/17 08:32:18;;;;;;;12.18;2.25;;;;;;;10.12;64.81;98045.19;5093386;28;20488;-60
2022/02/17 08:34:45;;;;;;;7.97;1.95;;;;;;;10.13;64.40;98036.38;5093492;28;20401;-62
2022/02/17 08:37:12;;;;;;;11.27;2.45;;;;;;;10.14;65.03;98052.00;5093758;28;20055;-60
2022/02/17 08:39:38;;;;;;;12.80;2.33;;;;;;;10.12;64.19;98043.41;5093346;28;20040;-61
2022/02/17 08:42:05;;;;;;;13.05;2.00;;;;;;;10.15;65.12;98060.72;5093671;28;20048;-61
2022/02/17 08:44:31;;;;;;;12.13;2.65;;;;;;;10.13;62.28;98065.28;5093523;28;20211;-60
2022/02/17 08:46:58;;;;;;;13.52;3.00;;;;;;;10.13;64.56;98060.03;5092949;28;20052;-60
2022/02/17 08:49:25;;;;;;;14.65;2.30;;;;;;;10.14;64.15;98088.81;5093043;28;20048;-60
2022/02/17 08:51:52;;;;;;;11.10;1.88;;;;;;;10.16;64.84;98088.69;5093300;28;20056;-62
2022/02/17 08:54:18;;;;;;;12.40;2.22;;;;;;;10.17;64.58;98079.84;5093699;28;20113;-59
2022/02/17 08:56:45;;;;;;;12.73;2.55;;;;;;;10.17;64.51;98093.81;5093442;28;20454;-61
2022/02/17 08:59:12;;;;;;;9.82;2.45;;;;;;;10.13;63.47;98076.63;5093043;28;20091;-59
2022/02/17 09:01:38;;;;;;;9.90;2.03;;;;;;;10.14;64.49;98107.22;5092956;28;20044;-62
2022/02/17 09:04:05;;;;;;;10.75;2.00;;;;;;;10.15;64.60;98094.91;5093288;28;20051;-61
2022/02/17 09:06:32;;;;;;;10.32;2.25;;;;;;;10.16;64.58;98107.09;5093149;28;20101;-60
2022/02/17 09:08:59;;;;;;;9.20;2.08;;;;;;;10.16;64.06;98099.19;5092619;28;20048;-63
2022/02/17 09:11:25;;;;;;;12.23;2.08;;;;;;;10.17;64.63;98104.34;5093087;28;20044;-60
2022/02/17 09:13:52;;;;;;;9.52;2.53;;;;;;;10.15;63.22;98076.50;5093078;28;20044;-60
2022/02/17 09:16:18;;;;;;;10.38;2.83;;;;;;;10.15;63.99;98114.16;5092775;28;20048;-60
2022/02/17 09:18:45;;;;;;;11.75;2.33;;;;;;;10.15;63.95;98113.31;5091863;28;20052;-61
2022/02/17 09:21:16;;;;;;;9.73;1.85;;;;;;;10.14;63.93;98133.50;5092979;28;20416;-62
2022/02/17 09:23:43;;;;;;;8.07;1.77;;;;;;;10.16;64.91;98138.63;5092076;28;20047;-60
2022/02/17 09:26:09;;;;;;;13.20;2.60;;;;;;;10.16;64.75;98151.78;5092824;28;20071;-60
2022/02/17 09:28:36;;;;;;;11.82;2.63;;;;;;;10.16;64.31;98151.78;5091560;28;20101;-60
2022/02/17 09:31:03;;;;;;;10.43;2.60;;;;;;;10.12;63.42;98145.09;5092474;28;20048;-60
2022/02/17 09:33:29;;;;;;;9.70;1.50;;;;;;;10.12;63.47;98171.41;5092188;28;20090;-62
2022/02/17 09:35:58;;;;;;;8.73;2.05;;;;;;;10.15;63.86;98193.03;5092121;28;20109;-61
2022/02/17 09:38:31;;;;;;;9.10;2.05;;;;;;;10.15;62.02;98195.66;5092585;28;20055;-62
2022/02/17 09:40:59;;;;;;;9.48;1.83;;;;;;;10.18;62.96;98199.84;5090732;28;20503;-60
2022/02/17 09:43:26;;;;;;;13.32;2.28;;;;;;;10.18;63.35;98213.00;5092207;28;20535;-61
2022/02/17 09:45:53;;;;;;;9.82;1.50;;;;;;;10.19;62.15;98233.06;5091064;28;20085;-60
2022/02/17 09:48:20;;;;;;;14.93;2.47;;;;;;;10.20;62.62;98212.88;5092052;28;20480;-63
2022/02/17 09:50:47;;;;;;;9.95;2.63;;;;;;;10.21;63.11;98212.72;5090729;28;20891;-60
2022/02/17 09:53:13;;;;;;;13.05;1.98;;;;;;;10.23;62.88;98229.22;5092219;28;20446;-61
2022/02/17 09:55:42;;;;;;;11.20;2.03;;;;;;;10.21;63.14;98241.66;5092113;28;20488;-61
2022/02/17 09:58:09;;;;;;;11.73;1.77;;;;;;;10.22;63.10;98234.59;5092173;28;20054;-60
2022/02/17 10:00:37;;;;;;;12.07;2.00;;;;;;;10.22;63.08;98242.50;5091334;28;20431;-61
2022/02/17 10:03:28;;;;;;;10.77;2.00;;;;;;;10.18;59.54;98218.25;5091955;28;20458;-61
2022/02/17 10:06:15;;;;;;;11.07;2.03;;;;;;;10.22;62.71;98259.13;5092008;28;20130;-61
2022/02/17 10:08:43;;;;;;;8.73;1.80;;;;;;;10.22;62.44;98255.66;5090817;28;20113;-62
2022/02/17 10:11:29;;;;;;;10.23;2.17;;;;;;;10.15;56.13;98274.56;5089875;28;20109;-60
2022/02/17 10:14:16;;;;;;;8.80;2.03;;;;;;;10.14;57.84;98285.19;5090074;28;20412;-59
2022/02/17 10:17:06;;;;;;;11.55;2.55;;;;;;;10.16;58.68;98270.13;5089940;28;20063;-60
2022/02/17 10:19:35;;;;;;;6.32;2.33;;;;;;;10.22;62.57;98290.69;5091405;28;20048;-60
2022/02/17 10:22:13;;;;;;;10.63;1.75;;;;;;;10.19;59.42;98293.53;5090582;28;20082;-61
2022/02/17 10:24:43;;;;;;;12.35;2.25;;;;;;;10.21;60.65;98293.44;5090207;28;20048;-61
2022/02/17 10:27:11;;;;;;;11.93;2.40;;;;;;;10.24;61.52;98311.59;5090878;28;20044;-60
2022/02/17 10:29:38;;;;;;;8.50;2.47;;;;;;;10.27;62.34;98313.97;5089098;28;20052;-60
2022/02/17 10:32:11;;;;;;;9.30;3.13;;;;;;;10.28;59.64;98305.13;5089745;28;20047;-61
2022/02/17 10:34:41;;;;;;;10.88;1.55;;;;;;;10.30;61.69;98340.88;5091705;28;20052;-60
2022/02/17 10:37:10;;;;;;;9.75;1.80;;;;;;;10.34;62.27;98346.72;5091555;28;20048;-61
2022/02/17 10:39:42;;;;;;;8.07;1.58;;;;;;;10.33;61.32;98339.78;5089402;28;20139;-60
2022/02/17 10:42:11;;;;;;;8.88;1.92;;;;;;;10.36;61.66;98351.88;5091303;28;20048;-60
2022/02/17 10:44:41;;;;;;;12.82;2.17;;;;;;;10.35;61.09;98345.75;5089824;28;20089;-61
2022/02/17 10:47:20;;;;;;;14.32;1.90;;;;;;;10.37;60.19;98356.16;5091434;28;20063;-60
2022/02/17 10:49:51;;;;;;;10.45;2.15;;;;;;;10.41;62.05;98361.06;5089436;28;20113;-61
2022/02/17 10:52:36;;;;;;;7.43;1.95;;;;;;;10.43;59.23;98346.00;5089740;28;20488;-61
2022/02/17 10:55:10;;;;;;;12.50;2.53;;;;;;;10.50;58.95;98356.91;5090972;28;20063;-63
2022/02/17 10:57:37;;;;;;;9.48;1.77;;;;;;;10.57;62.47;98372.22;5089757;28;20076;-60
2022/02/17 11:00:21;;;;;;;10.70;2.15;;;;;;;10.57;58.75;98366.94;5090464;28;20051;-62
2022/02/17 11:02:49;;;;;;;9.20;1.98;;;;;;;10.63;61.47;98361.19;5090838;28;20056;-60
2022/02/17 11:05:17;;;;;;;12.07;2.15;;;;;;;10.66;60.97;98382.00;5090438;28;20044;-62
2022/02/17 11:07:46;;;;;;;8.70;2.35;;;;;;;10.69;61.74;98408.06;5089582;28;20056;-60
2022/02/17 11:10:14;;;;;;;11.82;2.33;;;;;;;10.71;61.77;98382.47;5089376;28;20040;-60
2022/02/17 11:12:42;;;;;;;12.05;1.92;;;;;;;10.77;61.41;98389.03;5090846;28;20059;-61
2022/02/17 11:15:10;;;;;;;6.22;1.60;;;;;;;10.87;62.28;98391.78;5090048;28;20081;-61
2022/02/17 11:17:39;;;;;;;8.15;1.92;;;;;;;10.94;58.99;98401.69;5090543;28;20063;-61
2022/02/17 11:20:20;;;;;;;10.10;2.20;;;;;;;11.04;58.98;98391.25;5089027;28;20089;-62
2022/02/17 11:22:49;;;;;;;7.03;2.05;;;;;;;11.14;60.44;98411.56;5089395;28;20048;-61
2022/02/17 11:25:32;;;;;;;11.48;1.90;;;;;;;11.23;55.57;98405.53;5090612;28;20071;-60
2022/02/17 11:28:09;;;;;;;11.15;2.85;;;;;;;11.41;58.25;98424.28;5090189;28;20479;-61
2022/02/17 11:30:42;;;;;;;8.45;1.90;;;;;;;11.58;59.16;98422.03;5090395;28;20156;-63
2022/02/17 11:33:26;;;;;;;10.13;1.75;;;;;;;11.74;56.74;98403.16;5089169;28;20052;-61